createdAt,value
2019-03-15T00:01:59.401Z,6.83
2019-03-15T00:04:28.902Z,6.85
2019-03-15T00:06:58.485Z,6.83
2019-03-15T00:09:27.947Z,6.77
2019-03-15T00:11:57.542Z,6.77
2019-03-15T00:14:26.948Z,6.90
2019-03-15T00:16:56.523Z,6.86
2019-03-15T00:19:26.018Z,6.95
2019-03-15T00:21:55.482Z,7.03
2019-03-15T00:24:24.903Z,7.03
2019-03-15T00:26:54.366Z,7.13
2019-03-15T00:29:23.855Z,7.22
2019-03-15T00:31:53.305Z,7.25
2019-03-15T00:34:22.718Z,7.16
2019-03-15T00:36:52.262Z,7.23
2019-03-15T00:39:21.955Z,7.20
2019-03-15T00:41:51.543Z,7.23
2019-03-15T00:44:21.110Z,7.18
2019-03-15T00:46:50.498Z,7.09
2019-03-15T00:49:19.881Z,7.17
2019-03-15T00:51:49.494Z,7.11
2019-03-15T00:54:19.045Z,7.12
2019-03-15T00:56:48.460Z,7.20
2019-03-15T00:59:18.095Z,7.03
2019-03-15T01:01:47.772Z,7.07
2019-03-15T01:04:17.378Z,6.96
2019-03-15T01:06:47.590Z,6.91
2019-03-15T01:09:17.038Z,6.97
2019-03-15T01:11:47.551Z,6.92
2019-03-15T01:14:17.077Z,6.82
2019-03-15T01:16:46.690Z,6.82
2019-03-15T01:19:16.379Z,6.80
2019-03-15T01:21:45.871Z,6.77
2019-03-15T01:24:15.378Z,6.91
2019-03-15T01:26:44.824Z,6.84
2019-03-15T01:29:14.392Z,6.85
2019-03-15T01:31:44.165Z,6.94
2019-03-15T01:34:13.741Z,6.91
2019-03-15T01:36:43.357Z,7.01
2019-03-15T01:39:12.763Z,7.10
2019-03-15T01:41:42.221Z,6.93
2019-03-15T01:44:11.720Z,7.04
2019-03-15T01:46:41.354Z,6.94
2019-03-15T01:49:10.898Z,6.92
2019-03-15T01:51:41.451Z,6.98
2019-03-15T01:54:11.715Z,7.03
2019-03-15T01:56:41.303Z,7.10
2019-03-15T01:59:10.786Z,7.12
2019-03-15T02:01:40.288Z,7.13
2019-03-15T02:04:09.693Z,7.11
2019-03-15T02:06:39.149Z,7.13
2019-03-15T02:09:09.471Z,7.15
2019-03-15T02:11:39.073Z,7.23
2019-03-15T02:14:08.652Z,7.32
2019-03-15T02:16:38.205Z,7.26
2019-03-15T02:19:07.677Z,7.32
2019-03-15T02:21:37.112Z,7.34
2019-03-15T02:24:06.689Z,7.33
2019-03-15T02:26:36.148Z,7.30
2019-03-15T02:29:05.709Z,7.29
2019-03-15T02:31:35.140Z,7.23
2019-03-15T02:34:07.559Z,7.18
2019-03-15T02:36:37.128Z,7.29
2019-03-15T02:39:07.793Z,7.29
2019-03-15T02:41:37.178Z,7.28
2019-03-15T02:44:06.723Z,7.25
2019-03-15T02:46:36.239Z,7.26
2019-03-15T02:49:06.155Z,7.34
2019-03-15T02:51:35.632Z,7.44
2019-03-15T02:54:05.083Z,7.32
2019-03-15T02:56:34.625Z,7.44
2019-03-15T02:59:05.169Z,7.20
2019-03-15T03:01:34.655Z,7.25
2019-03-15T03:04:04.417Z,7.08
2019-03-15T03:06:33.776Z,7.19
2019-03-15T03:09:03.221Z,7.20
2019-03-15T03:11:32.650Z,7.20
2019-03-15T03:14:02.254Z,7.07
2019-03-15T03:16:31.806Z,7.11
2019-03-15T03:19:01.469Z,7.25
2019-03-15T03:21:31.000Z,7.10
2019-03-15T03:24:00.570Z,7.12
2019-03-15T03:26:29.970Z,7.29
2019-03-15T03:28:59.423Z,7.17
2019-03-15T03:31:28.990Z,7.27
2019-03-15T03:33:58.587Z,7.29
2019-03-15T03:36:28.217Z,7.22
2019-03-15T03:38:57.780Z,7.22
2019-03-15T03:41:27.354Z,7.28
2019-03-15T03:43:56.976Z,7.26
2019-03-15T03:46:27.357Z,7.29
2019-03-15T03:48:56.970Z,7.30
2019-03-15T03:51:26.517Z,7.32
2019-03-15T03:53:56.041Z,7.32
2019-03-15T03:56:25.483Z,7.51
2019-03-15T03:58:54.983Z,7.47
2019-03-15T04:01:24.523Z,7.37
2019-03-15T04:03:54.119Z,7.35
2019-03-15T04:06:23.547Z,7.38
2019-03-15T04:08:53.020Z,7.32
2019-03-15T04:11:22.439Z,7.26
2019-03-15T04:13:51.963Z,7.27
2019-03-15T04:16:21.501Z,7.24
2019-03-15T04:18:51.018Z,7.13
2019-03-15T04:21:20.499Z,7.06
2019-03-15T04:23:49.902Z,7.08
2019-03-15T04:26:19.471Z,6.93
2019-03-15T04:28:48.983Z,6.93
2019-03-15T04:31:18.495Z,6.93
2019-03-15T04:33:48.084Z,7.08
2019-03-15T04:36:17.539Z,7.06
2019-03-15T04:38:47.043Z,7.12
2019-03-15T04:41:16.553Z,7.11
2019-03-15T04:43:46.073Z,7.10
2019-03-15T04:46:15.455Z,7.11
2019-03-15T04:48:44.958Z,7.15
2019-03-15T04:51:14.572Z,7.18
2019-03-15T04:53:44.049Z,7.26
2019-03-15T04:56:13.599Z,7.19
2019-03-15T04:58:43.013Z,7.25
2019-03-15T05:01:12.578Z,7.24
2019-03-15T05:03:42.085Z,7.34
2019-03-15T05:06:11.651Z,7.27
2019-03-15T05:08:41.102Z,7.23
2019-03-15T05:11:10.662Z,7.19
2019-03-15T05:13:40.150Z,7.18
2019-03-15T05:16:09.760Z,7.16
2019-03-15T05:18:39.326Z,7.16
2019-03-15T05:21:08.758Z,7.18
2019-03-15T05:23:38.234Z,7.14
2019-03-15T05:26:07.979Z,7.10
2019-03-15T05:28:37.406Z,7.10
2019-03-15T05:31:06.887Z,7.26
2019-03-15T05:33:36.428Z,7.29
2019-03-15T05:36:05.889Z,7.27
2019-03-15T05:38:35.531Z,7.28
2019-03-15T05:41:05.261Z,7.24
2019-03-15T05:43:34.811Z,7.36
2019-03-15T05:46:04.440Z,7.27
2019-03-15T05:48:33.960Z,7.28
2019-03-15T05:51:03.388Z,7.22
2019-03-15T05:53:32.930Z,7.16
2019-03-15T05:56:05.298Z,7.14
2019-03-15T05:58:34.804Z,7.18
2019-03-15T06:01:04.355Z,7.04
2019-03-15T06:03:47.433Z,7.01
2019-03-15T06:06:05.251Z,7.08
2019-03-15T06:08:35.082Z,7.03
2019-03-15T06:11:04.582Z,7.03
2019-03-15T06:13:34.146Z,6.95
2019-03-15T06:16:03.523Z,6.86
2019-03-15T06:18:33.091Z,6.91
2019-03-15T06:21:02.505Z,6.84
2019-03-15T06:23:32.027Z,6.79
2019-03-15T06:26:01.570Z,6.92
2019-03-15T06:28:31.110Z,6.94
2019-03-15T06:31:00.610Z,6.96
2019-03-15T06:33:30.087Z,6.97
2019-03-15T06:35:59.608Z,7.06
2019-03-15T06:38:29.063Z,7.04
2019-03-15T06:40:58.499Z,7.03
2019-03-15T06:43:27.918Z,7.17
2019-03-15T06:45:57.435Z,7.14
2019-03-15T06:48:26.929Z,7.16
2019-03-15T06:50:56.455Z,7.30
2019-03-15T06:53:25.961Z,7.41
2019-03-15T06:55:55.418Z,7.38
2019-03-15T06:58:24.938Z,7.40
2019-03-15T07:00:55.022Z,7.43
2019-03-15T07:03:24.627Z,7.51
2019-03-15T07:05:54.231Z,7.49
2019-03-15T07:08:23.784Z,7.62
2019-03-15T07:10:53.345Z,7.62
2019-03-15T07:13:22.772Z,7.47
2019-03-15T07:15:52.164Z,7.58
2019-03-15T07:18:21.565Z,7.57
2019-03-15T07:20:50.989Z,7.61
2019-03-15T07:23:20.452Z,7.80
2019-03-15T07:25:49.980Z,7.87
2019-03-15T07:28:19.819Z,7.81
2019-03-15T07:30:49.390Z,7.79
2019-03-15T07:33:18.859Z,7.88
2019-03-15T07:35:48.276Z,7.95
2019-03-15T07:38:17.692Z,7.93
2019-03-15T07:40:47.273Z,7.76
2019-03-15T07:43:19.827Z,7.69
2019-03-15T07:45:48.069Z,7.64
2019-03-15T07:48:22.813Z,7.55
2019-03-15T07:50:48.837Z,7.57
2019-03-15T07:53:18.532Z,7.74
2019-03-15T07:55:48.187Z,7.61
2019-03-15T07:58:17.668Z,7.62
2019-03-15T08:00:47.198Z,7.65
2019-03-15T08:03:16.696Z,7.63
2019-03-15T08:05:46.118Z,7.64
2019-03-15T08:08:15.520Z,7.62
2019-03-15T08:10:44.992Z,7.69
2019-03-15T08:13:14.519Z,7.71
2019-03-15T08:15:44.010Z,7.65
2019-03-15T08:18:13.514Z,7.74
2019-03-15T08:20:42.928Z,7.81
2019-03-15T08:23:12.465Z,7.76
2019-03-15T08:25:41.974Z,7.77
2019-03-15T08:28:11.501Z,7.83
2019-03-15T08:30:40.938Z,7.91
2019-03-15T08:33:11.222Z,7.76
2019-03-15T08:35:40.895Z,7.83
2019-03-15T08:38:10.254Z,7.75
2019-03-15T08:40:39.758Z,7.82
2019-03-15T08:43:09.303Z,7.85
2019-03-15T08:45:38.825Z,7.89
2019-03-15T08:48:08.316Z,7.85
2019-03-15T08:50:37.700Z,7.91
2019-03-15T08:53:07.147Z,7.78
2019-03-15T08:55:39.715Z,7.75
2019-03-15T08:58:13.786Z,7.68
2019-03-15T09:00:38.985Z,7.68
2019-03-15T09:03:08.566Z,7.71
2019-03-15T09:05:38.056Z,7.74
2019-03-15T09:08:07.653Z,7.89
2019-03-15T09:10:37.248Z,7.98
2019-03-15T09:13:06.892Z,8.01
2019-03-15T09:15:36.361Z,8.02
2019-03-15T09:18:05.776Z,7.99
2019-03-15T09:20:35.327Z,8.00
2019-03-15T09:23:04.832Z,7.99
2019-03-15T09:25:34.242Z,8.09
2019-03-15T09:28:03.794Z,8.16
2019-03-15T09:30:33.301Z,8.23
2019-03-15T09:33:03.276Z,8.19
2019-03-15T09:35:32.882Z,8.13
2019-03-15T09:38:02.479Z,8.26
2019-03-15T09:40:32.021Z,8.41
2019-03-15T09:43:01.526Z,8.54
2019-03-15T09:45:31.055Z,8.48
2019-03-15T09:48:00.450Z,8.49
2019-03-15T09:50:40.041Z,8.41
2019-03-15T09:53:01.238Z,8.47
2019-03-15T09:55:33.101Z,8.47
2019-03-15T09:58:02.015Z,8.50
2019-03-15T10:00:31.479Z,8.41
2019-03-15T10:03:01.043Z,8.45
2019-03-15T10:05:30.655Z,8.68
2019-03-15T10:08:00.158Z,8.72
2019-03-15T10:10:29.770Z,8.85
2019-03-15T10:13:05.990Z,8.96
2019-03-15T10:15:30.439Z,8.88
2019-03-15T10:17:59.904Z,8.97
2019-03-15T10:20:29.384Z,8.98
2019-03-15T10:23:06.132Z,8.99
2019-03-15T10:25:30.084Z,9.17
2019-03-15T10:27:59.664Z,9.18
2019-03-15T10:30:29.064Z,9.15
2019-03-15T10:32:58.528Z,9.32
2019-03-15T10:35:28.186Z,9.34
2019-03-15T10:37:57.701Z,9.50
2019-03-15T10:40:27.298Z,9.47
2019-03-15T10:42:56.938Z,9.57
2019-03-15T10:45:26.465Z,9.64
2019-03-15T10:47:55.941Z,9.84
2019-03-15T10:50:25.323Z,9.89
2019-03-15T10:52:54.919Z,9.91
2019-03-15T10:55:24.342Z,10.04
2019-03-15T10:57:53.803Z,10.16
2019-03-15T11:00:23.318Z,10.18
2019-03-15T11:02:52.738Z,10.32
2019-03-15T11:05:22.244Z,10.36
2019-03-15T11:07:51.642Z,10.58
2019-03-15T11:10:21.393Z,10.62
2019-03-15T11:12:51.051Z,10.84
2019-03-15T11:15:20.631Z,11.02
2019-03-15T11:17:50.065Z,11.19
2019-03-15T11:20:19.603Z,11.35
2019-03-15T11:22:49.151Z,11.70
2019-03-15T11:25:18.682Z,11.89
2019-03-15T11:27:48.246Z,12.11
2019-03-15T11:30:17.880Z,12.22
2019-03-15T11:32:49.563Z,12.28
2019-03-15T11:35:21.196Z,12.36
2019-03-15T11:37:50.438Z,12.45
2019-03-15T11:40:19.935Z,12.56
2019-03-15T11:42:49.534Z,12.72
2019-03-15T11:45:18.969Z,12.88
2019-03-15T11:48:02.697Z,13.13
2019-03-15T11:50:19.839Z,13.29
2019-03-15T11:52:49.268Z,13.47
2019-03-15T11:55:18.872Z,13.75
2019-03-15T11:57:48.457Z,14.16
2019-03-15T12:00:18.133Z,14.36
2019-03-15T12:02:47.852Z,14.60
2019-03-15T12:05:17.480Z,14.70
2019-03-15T12:07:47.095Z,14.67
2019-03-15T12:10:16.531Z,14.57
2019-03-15T12:12:46.066Z,14.88
2019-03-15T12:15:15.565Z,14.61
2019-03-15T12:17:45.038Z,14.51
2019-03-15T12:20:14.650Z,13.97
2019-03-15T12:22:44.206Z,13.57
2019-03-15T12:25:14.065Z,13.14
2019-03-15T12:27:43.730Z,12.89
2019-03-15T12:30:13.332Z,12.77
2019-03-15T12:32:42.840Z,12.65
2019-03-15T12:35:12.509Z,12.50
2019-03-15T12:37:42.008Z,12.49
2019-03-15T12:40:11.788Z,12.47
2019-03-15T12:42:41.545Z,12.36
2019-03-15T12:45:11.132Z,12.55
2019-03-15T12:47:40.806Z,12.65
2019-03-15T12:50:10.392Z,12.80
2019-03-15T12:52:47.111Z,12.91
2019-03-15T12:55:11.438Z,12.86
2019-03-15T12:57:41.102Z,12.96
2019-03-15T13:00:12.910Z,12.89
2019-03-15T13:02:42.380Z,12.86
2019-03-15T13:05:12.252Z,12.85
2019-03-15T13:07:41.717Z,12.79
2019-03-15T13:10:12.434Z,12.66
2019-03-15T13:12:41.944Z,12.56
2019-03-15T13:15:12.775Z,12.46
2019-03-15T13:17:42.231Z,12.38
2019-03-15T13:20:12.424Z,12.37
2019-03-15T13:22:43.023Z,12.46
2019-03-15T13:25:12.589Z,12.40
2019-03-15T13:27:42.156Z,12.29
2019-03-15T13:30:11.940Z,12.44
2019-03-15T13:32:41.534Z,12.35
2019-03-15T13:35:11.448Z,12.36
2019-03-15T13:37:43.148Z,12.41
2019-03-15T13:40:12.689Z,12.56
2019-03-15T13:42:43.385Z,12.82
2019-03-15T13:45:13.271Z,12.86
2019-03-15T13:47:42.943Z,13.14
2019-03-15T13:50:13.339Z,13.35
2019-03-15T13:52:43.090Z,13.32
2019-03-15T13:55:13.038Z,13.27
2019-03-15T13:57:42.917Z,13.41
2019-03-15T14:00:13.799Z,13.50
2019-03-15T14:02:43.514Z,13.54
2019-03-15T14:05:13.313Z,13.55
2019-03-15T14:07:45.128Z,13.36
2019-03-15T14:10:15.167Z,12.92
2019-03-15T14:12:47.194Z,12.69
2019-03-15T14:15:17.143Z,12.69
2019-03-15T14:17:46.873Z,12.68
2019-03-15T14:20:16.619Z,12.74
2019-03-15T14:22:46.415Z,12.63
2019-03-15T14:25:16.221Z,12.34
2019-03-15T14:27:46.152Z,11.17
2019-03-15T14:30:16.070Z,10.39
2019-03-15T14:32:45.888Z,9.98
2019-03-15T14:35:15.684Z,9.84
2019-03-15T14:37:45.765Z,9.68
2019-03-15T14:40:15.554Z,9.62
2019-03-15T14:42:45.485Z,9.70
2019-03-15T14:45:15.329Z,9.58
2019-03-15T14:47:45.125Z,9.59
2019-03-15T14:50:14.901Z,9.57
2019-03-15T14:52:44.740Z,9.58
2019-03-15T14:55:14.686Z,9.55
2019-03-15T14:57:52.128Z,9.65
2019-03-15T15:00:16.049Z,9.59
2019-03-15T15:02:45.868Z,9.70
2019-03-15T15:05:15.699Z,9.57
2019-03-15T15:07:45.601Z,9.73
2019-03-15T15:10:17.135Z,9.71
2019-03-15T15:12:46.917Z,9.64
2019-03-15T15:15:16.921Z,9.66
2019-03-15T15:17:46.565Z,9.72
2019-03-15T15:20:16.872Z,9.72
2019-03-15T15:22:46.748Z,9.68
2019-03-15T15:25:16.947Z,9.66
2019-03-15T15:27:46.619Z,9.66
2019-03-15T15:30:17.088Z,9.74
2019-03-15T15:32:46.807Z,9.71
2019-03-15T15:35:16.706Z,9.79
2019-03-15T15:37:46.517Z,9.78
2019-03-15T15:40:16.539Z,9.72
2019-03-15T15:42:46.271Z,9.79
2019-03-15T15:45:16.127Z,9.80
2019-03-15T15:47:45.909Z,9.86
2019-03-15T15:50:15.894Z,9.69
2019-03-15T15:52:45.689Z,9.84
2019-03-15T15:55:15.565Z,9.80
2019-03-15T15:57:45.347Z,9.84
2019-03-15T16:00:15.150Z,9.87
2019-03-15T16:02:44.927Z,9.92
2019-03-15T16:05:14.727Z,9.96
2019-03-15T16:07:44.592Z,9.95
2019-03-15T16:10:17.346Z,10.06
2019-03-15T16:12:45.981Z,10.22
2019-03-15T16:15:15.900Z,10.33
2019-03-15T16:17:46.138Z,10.42
2019-03-15T16:20:16.061Z,10.39
2019-03-15T16:22:45.736Z,10.48
2019-03-15T16:25:15.398Z,10.48
2019-03-15T16:27:45.251Z,10.47
2019-03-15T16:30:15.226Z,10.56
2019-03-15T16:32:45.140Z,10.46
2019-03-15T16:35:14.949Z,10.43
2019-03-15T16:37:44.711Z,10.49
2019-03-15T16:40:14.557Z,10.40
2019-03-15T16:42:44.373Z,10.51
2019-03-15T16:45:15.494Z,10.56
2019-03-15T16:47:45.291Z,10.52
2019-03-15T16:50:15.393Z,10.66
2019-03-15T16:52:45.407Z,10.54
2019-03-15T16:55:15.332Z,10.53
2019-03-15T16:57:45.079Z,10.65
2019-03-15T17:00:14.937Z,10.63
2019-03-15T17:02:44.898Z,10.54
2019-03-15T17:05:14.981Z,10.57
2019-03-15T17:07:44.897Z,10.55
2019-03-15T17:10:14.715Z,10.54
2019-03-15T17:12:44.733Z,10.66
2019-03-15T17:15:14.601Z,10.53
2019-03-15T17:17:44.605Z,10.43
2019-03-15T17:20:14.483Z,10.44
2019-03-15T17:22:44.446Z,10.50
2019-03-15T17:25:14.244Z,10.41
2019-03-15T17:27:44.038Z,10.36
2019-03-15T17:30:14.585Z,10.34
2019-03-15T17:32:44.559Z,10.24
2019-03-15T17:35:14.646Z,10.16
2019-03-15T17:37:44.725Z,10.00
2019-03-15T17:40:14.851Z,10.07
2019-03-15T17:42:44.950Z,10.04
2019-03-15T17:45:15.599Z,9.95
2019-03-15T17:47:45.652Z,10.16
2019-03-15T17:50:16.234Z,10.13
2019-03-15T17:52:46.123Z,10.06
2019-03-15T17:55:17.089Z,9.92
2019-03-15T17:57:47.093Z,9.93
2019-03-15T18:00:45.262Z,9.88
2019-03-15T18:03:21.449Z,9.83
2019-03-15T18:05:47.326Z,9.76
2019-03-15T18:08:17.268Z,9.84
2019-03-15T18:10:47.288Z,9.73
2019-03-15T18:13:17.394Z,9.73
2019-03-15T18:15:47.312Z,9.64
2019-03-15T18:18:17.418Z,9.56
2019-03-15T18:20:47.362Z,9.50
2019-03-15T18:23:17.323Z,9.51
2019-03-15T18:25:47.338Z,9.48
2019-03-15T18:28:17.307Z,9.64
2019-03-15T18:30:47.409Z,9.53
2019-03-15T18:33:17.295Z,9.60
2019-03-15T18:35:47.252Z,9.64
2019-03-15T18:38:17.677Z,9.44
2019-03-15T18:40:47.809Z,9.45
2019-03-15T18:43:17.683Z,9.41
2019-03-15T18:45:47.723Z,9.25
2019-03-15T18:48:17.858Z,9.26
2019-03-15T18:50:47.761Z,9.27
2019-03-15T18:53:17.744Z,9.28
2019-03-15T18:55:47.729Z,9.24
2019-03-15T18:58:17.541Z,9.16
2019-03-15T19:00:47.469Z,9.13
2019-03-15T19:03:17.453Z,9.23
2019-03-15T19:05:47.759Z,9.13
2019-03-15T19:08:17.974Z,9.00
2019-03-15T19:10:47.910Z,9.06
2019-03-15T19:13:18.035Z,9.03
2019-03-15T19:15:48.460Z,8.97
2019-03-15T19:18:19.104Z,8.90
2019-03-15T19:20:49.062Z,8.81
2019-03-15T19:23:19.155Z,8.83
2019-03-15T19:25:49.074Z,8.83
2019-03-15T19:28:19.117Z,8.81
2019-03-15T19:30:48.848Z,8.62
2019-03-15T19:33:18.743Z,8.68
2019-03-15T19:35:48.833Z,8.69
2019-03-15T19:38:18.743Z,8.67
2019-03-15T19:40:48.604Z,8.63
2019-03-15T19:43:18.641Z,8.60
2019-03-15T19:45:48.552Z,8.66
2019-03-15T19:48:18.534Z,8.61
2019-03-15T19:50:48.269Z,8.62
2019-03-15T19:53:18.173Z,8.80
2019-03-15T19:55:48.148Z,8.78
2019-03-15T19:58:18.468Z,8.68
2019-03-15T20:00:48.407Z,8.92
2019-03-15T20:03:18.346Z,8.84
2019-03-15T20:05:48.218Z,8.70
2019-03-15T20:08:18.604Z,8.77
2019-03-15T20:10:48.718Z,8.71
2019-03-15T20:13:18.880Z,8.52
2019-03-15T20:15:50.896Z,8.55
2019-03-15T20:18:21.230Z,8.56
2019-03-15T20:20:51.248Z,8.53
2019-03-15T20:23:21.388Z,8.47
2019-03-15T20:25:51.204Z,8.37
2019-03-15T20:28:21.200Z,8.51
2019-03-15T20:30:52.336Z,8.55
2019-03-15T20:33:22.321Z,8.42
2019-03-15T20:35:52.343Z,8.53
2019-03-15T20:38:22.150Z,8.41
2019-03-15T20:40:52.128Z,8.35
2019-03-15T20:43:21.967Z,8.20
2019-03-15T20:45:51.768Z,8.34
2019-03-15T20:48:21.568Z,8.31
2019-03-15T20:50:51.508Z,8.29
2019-03-15T20:53:21.331Z,8.35
2019-03-15T20:55:51.632Z,8.36
2019-03-15T20:58:22.470Z,8.32
2019-03-15T21:00:52.673Z,8.29
2019-03-15T21:03:22.681Z,8.33
2019-03-15T21:05:52.582Z,8.26
2019-03-15T21:08:22.622Z,8.27
2019-03-15T21:10:52.346Z,8.08
2019-03-15T21:13:22.403Z,8.03
2019-03-15T21:15:52.325Z,8.14
2019-03-15T21:18:22.311Z,8.15
2019-03-15T21:20:52.228Z,8.19
2019-03-15T21:23:22.054Z,8.17
2019-03-15T21:25:51.887Z,8.03
2019-03-15T21:28:21.806Z,8.02
2019-03-15T21:30:51.969Z,8.08
2019-03-15T21:33:21.635Z,8.15
2019-03-15T21:35:51.486Z,8.22
2019-03-15T21:38:21.398Z,8.14
2019-03-15T21:40:51.214Z,8.18
2019-03-15T21:43:20.970Z,8.17
2019-03-15T21:45:50.810Z,8.16
2019-03-15T21:48:20.796Z,8.06
2019-03-15T21:50:50.720Z,7.99
2019-03-15T21:53:20.633Z,8.01
2019-03-15T21:55:50.450Z,8.06
2019-03-15T21:58:20.280Z,8.01
2019-03-15T22:01:01.757Z,8.00
2019-03-15T22:03:21.341Z,7.92
2019-03-15T22:05:51.023Z,7.92
2019-03-15T22:08:20.665Z,7.90
2019-03-15T22:10:50.202Z,7.81
2019-03-15T22:13:19.763Z,7.70
2019-03-15T22:15:49.225Z,7.87
2019-03-15T22:18:18.665Z,7.84
2019-03-15T22:20:48.223Z,7.79
2019-03-15T22:23:17.673Z,7.74
2019-03-15T22:25:47.231Z,7.86
2019-03-15T22:28:16.747Z,7.91
2019-03-15T22:30:46.185Z,7.83
2019-03-15T22:33:15.689Z,7.74
2019-03-15T22:35:45.279Z,7.69
2019-03-15T22:38:25.645Z,7.79
2019-03-15T22:40:46.089Z,7.71
2019-03-15T22:43:16.054Z,7.70
2019-03-15T22:45:45.562Z,7.78
2019-03-15T22:48:14.962Z,7.72
2019-03-15T22:50:44.518Z,7.77
2019-03-15T22:53:14.049Z,7.75
2019-03-15T22:55:43.567Z,7.78
2019-03-15T22:58:13.104Z,7.65
2019-03-15T23:00:42.826Z,7.64
2019-03-15T23:03:12.401Z,7.71
2019-03-15T23:05:41.823Z,7.82
2019-03-15T23:08:11.267Z,7.85
2019-03-15T23:10:40.764Z,8.02
2019-03-15T23:13:10.303Z,7.95
2019-03-15T23:15:39.783Z,7.92
2019-03-15T23:18:09.323Z,8.04
2019-03-15T23:20:38.898Z,8.15
2019-03-15T23:23:08.283Z,8.24
2019-03-15T23:25:37.949Z,8.37
2019-03-15T23:28:07.589Z,8.26
2019-03-15T23:30:37.208Z,8.29
2019-03-15T23:33:06.678Z,8.19
2019-03-15T23:35:52.555Z,8.11
2019-03-15T23:38:07.528Z,8.19
2019-03-15T23:40:37.072Z,8.23
2019-03-15T23:43:06.590Z,8.17
2019-03-15T23:45:36.108Z,8.19
2019-03-15T23:48:05.623Z,8.13
2019-03-15T23:50:35.071Z,8.14
2019-03-15T23:53:04.625Z,8.08
2019-03-15T23:55:34.220Z,8.18
2019-03-15T23:58:03.652Z,8.31
